Time;durP1;ratioP1;P1;durP2;ratioP2;P2;SDS_P1;SDS_P2;PMS_P1;PMS_P2;Temp;Humidity;BMP_temperature;BMP_pressure;BME280_temperature;BME280_humidity;BME280_pressure;Samples;Min_cycle;Max_cycle;Signal;HPM_P1;HPM_P2
2022/07/10 00:00:31;;;;;;;2.95;1.75;;;;;;;;;;5048557;28;20033;-72
2022/07/10 00:02:57;;;;;;;2.80;1.88;;;;;;;;;;5048809;28;20029;-73
2022/07/10 00:05:24;;;;;;;3.67;1.90;;;;;;;;;;5048484;28;20091;-72
2022/07/10 00:07:49;;;;;;;4.55;1.70;;;;;;;;;;5048492;28;20073;-74
2022/07/10 00:10:16;;;;;;;3.97;1.70;;;;;;;;;;5048003;28;20052;-73
2022/07/10 00:12:42;;;;;;;4.22;2.05;;;;;;;;;;5047935;28;20017;-72
2022/07/10 00:15:08;;;;;;;4.82;2.00;;;;;;;;;;5048279;28;20020;-72
2022/07/10 00:17:35;;;;;;;3.30;1.77;;;;;;;;;;5048566;28;20028;-71
2022/07/10 00:20:00;;;;;;;4.20;2.08;;;;;;;;;;5048313;28;20029;-71
2022/07/10 00:22:26;;;;;;;4.45;2.00;;;;;;;;;;5030215;28;20025;-72
2022/07/10 00:24:51;;;;;;;3.78;1.83;;;;;;;;;;5048221;28;20048;-72
2022/07/10 00:27:18;;;;;;;3.78;1.80;;;;;;;;;;5048130;28;20051;-72
2022/07/10 00:29:43;;;;;;;3.90;2.03;;;;;;;;;;5047968;28;20074;-72
2022/07/10 00:32:09;;;;;;;4.55;1.77;;;;;;;;;;5048558;28;20021;-71
2022/07/10 00:34:35;;;;;;;4.55;2.03;;;;;;;;;;5048181;28;20032;-72
2022/07/10 00:37:00;;;;;;;4.30;1.75;;;;;;;;;;5047994;28;20154;-73
2022/07/10 00:39:26;;;;;;;2.90;1.70;;;;;;;;;;5048214;28;20059;-72
2022/07/10 00:41:51;;;;;;;3.70;1.80;;;;;;;;;;5048072;28;20509;-72
2022/07/10 00:44:17;;;;;;;2.08;1.70;;;;;;;;;;5048190;28;20025;-72
2022/07/10 00:46:42;;;;;;;2.53;1.70;;;;;;;;;;5048025;28;20556;-72
2022/07/10 00:49:07;;;;;;;4.57;2.00;;;;;;;;;;5047973;28;20021;-72
2022/07/10 00:51:33;;;;;;;2.03;1.58;;;;;;;;;;5048058;28;20049;-71
2022/07/10 00:54:00;;;;;;;3.38;1.52;;;;;;;;;;5048152;28;20028;-72
2022/07/10 00:56:27;;;;;;;3.10;1.85;;;;;;;;;;5048085;28;20474;-70
2022/07/10 00:58:52;;;;;;;3.17;1.70;;;;;;;;;;5048024;28;20390;-71
2022/07/10 01:01:18;;;;;;;5.57;1.80;;;;;;;;;;5047864;28;20029;-72
2022/07/10 01:03:45;;;;;;;4.00;1.77;;;;;;;;;;5048367;28;20024;-70
2022/07/10 01:06:11;;;;;;;3.97;1.83;;;;;;;;;;5048456;28;20025;-72
2022/07/10 01:08:36;;;;;;;2.92;1.52;;;;;;;;;;5047866;28;20327;-71
2022/07/10 01:11:02;;;;;;;5.18;1.70;;;;;;;;;;5047945;28;20033;-72
2022/07/10 01:13:28;;;;;;;4.07;1.70;;;;;;;;;;5047736;28;20226;-73
2022/07/10 01:15:53;;;;;;;2.85;1.73;;;;;;;;;;5047824;28;20037;-73
2022/07/10 01:18:19;;;;;;;5.85;1.83;;;;;;;;;;5047630;28;20083;-72
2022/07/10 01:20:44;;;;;;;2.13;1.50;;;;;;;;;;5047799;28;20383;-72
2022/07/10 01:23:10;;;;;;;5.13;2.00;;;;;;;;;;5050380;28;20104;-72
2022/07/10 01:25:35;;;;;;;2.78;1.48;;;;;;;;;;5051698;28;20466;-71
2022/07/10 01:28:00;;;;;;;3.88;1.65;;;;;;;;;;5051205;28;20044;-73
2022/07/10 01:30:26;;;;;;;6.20;1.50;;;;;;;;;;5051564;28;20074;-71
2022/07/10 01:32:52;;;;;;;5.00;1.58;;;;;;;;;;5051557;28;20021;-72
2022/07/10 01:35:18;;;;;;;6.03;1.60;;;;;;;;;;5033256;28;20043;-71
2022/07/10 01:37:43;;;;;;;3.15;1.60;;;;;;;;;;5051285;28;20037;-72
2022/07/10 01:40:09;;;;;;;2.47;1.58;;;;;;;;;;5033342;28;20029;-74
2022/07/10 01:42:35;;;;;;;2.45;1.20;;;;;;;;;;5051270;28;20028;-72
2022/07/10 01:45:00;;;;;;;4.45;1.60;;;;;;;;;;5051393;28;20024;-71
2022/07/10 01:47:27;;;;;;;3.40;1.40;;;;;;;;;;5051164;28;20052;-71
2022/07/10 01:49:53;;;;;;;2.72;1.52;;;;;;;;;;5051170;28;20146;-71
2022/07/10 01:52:22;;;;;;;2.58;1.27;;;;;;;;;;5051391;28;20059;-71
2022/07/10 01:54:48;;;;;;;2.95;1.42;;;;;;;;;;5051114;28;20463;-72
2022/07/10 01:57:14;;;;;;;4.47;1.80;;;;;;;;;;5050864;28;20035;-73
2022/07/10 01:59:40;;;;;;;5.13;1.90;;;;;;;;;;5050773;28;20020;-72
2022/07/10 02:02:06;;;;;;;3.33;2.10;;;;;;;;;;5050816;28;20025;-73
2022/07/10 02:04:40;;;;;;;3.80;1.92;;;;;;;;;;5050980;28;20033;-72
2022/07/10 02:07:06;;;;;;;3.90;2.00;;;;;;;;;;5050517;28;20039;-71
2022/07/10 02:09:31;;;;;;;6.05;1.80;;;;;;;;;;5050544;28;20040;-70
2022/07/10 02:11:56;;;;;;;2.60;1.90;;;;;;;;;;5050832;28;20277;-72
2022/07/10 02:14:22;;;;;;;4.15;1.75;;;;;;;;;;5051109;28;20040;-72
2022/07/10 02:16:47;;;;;;;2.17;1.77;;;;;;;;;;5050762;28;20390;-73
2022/07/10 02:19:12;;;;;;;5.13;2.10;;;;;;;;;;5050237;28;20037;-73
2022/07/10 02:21:38;;;;;;;2.80;1.90;;;;;;;;;;5050413;28;20025;-72
2022/07/10 02:24:03;;;;;;;2.75;1.60;;;;;;;;;;5050590;28;20017;-71
2022/07/10 02:26:28;;;;;;;2.75;1.95;;;;;;;;;;5050526;28;20470;-72
2022/07/10 02:28:54;;;;;;;5.93;2.30;;;;;;;;;;5050217;28;20031;-72
2022/07/10 02:31:19;;;;;;;3.88;2.15;;;;;;;;;;5050409;28;20463;-72
2022/07/10 02:33:44;;;;;;;4.95;2.10;;;;;;;;;;5049723;28;20036;-73
2022/07/10 02:36:09;;;;;;;3.88;1.85;;;;;;;;;;5050400;28;20027;-71
2022/07/10 02:38:35;;;;;;;2.78;1.90;;;;;;;;;;5050390;28;20082;-70
2022/07/10 02:41:00;;;;;;;3.50;1.80;;;;;;;;;;5050607;28;20889;-71
2022/07/10 02:43:26;;;;;;;4.88;1.95;;;;;;;;;;5050582;28;20478;-73
2022/07/10 02:45:51;;;;;;;5.25;1.92;;;;;;;;;;5050492;28;20025;-72
2022/07/10 02:48:18;;;;;;;4.90;1.88;;;;;;;;;;5050268;28;20024;-72
2022/07/10 02:50:43;;;;;;;4.97;1.70;;;;;;;;;;5050326;28;20527;-73
2022/07/10 02:53:08;;;;;;;4.25;1.70;;;;;;;;;;5032217;28;20039;-73
2022/07/10 02:55:34;;;;;;;3.50;1.75;;;;;;;;;;5049970;28;20086;-72
2022/07/10 02:57:59;;;;;;;3.10;1.92;;;;;;;;;;5049819;28;20024;-72
2022/07/10 03:00:26;;;;;;;4.18;1.58;;;;;;;;;;5050036;28;20481;-72
2022/07/10 03:02:52;;;;;;;5.03;1.60;;;;;;;;;;5049746;28;20493;-72
2022/07/10 03:05:17;;;;;;;7.57;1.50;;;;;;;;;;5049603;28;20166;-70
2022/07/10 03:07:43;;;;;;;3.53;1.52;;;;;;;;;;5049686;28;20033;-71
2022/07/10 03:10:09;;;;;;;6.05;1.38;;;;;;;;;;5049396;28;20048;-71
2022/07/10 03:12:34;;;;;;;5.57;1.40;;;;;;;;;;5049622;28;20353;-71
2022/07/10 03:15:00;;;;;;;3.35;1.48;;;;;;;;;;5049725;28;20029;-71
2022/07/10 03:17:25;;;;;;;4.68;1.40;;;;;;;;;;5031475;28;20119;-70
2022/07/10 03:19:50;;;;;;;2.83;1.20;;;;;;;;;;5049111;28;20116;-71
2022/07/10 03:22:16;;;;;;;2.72;1.25;;;;;;;;;;5049304;28;20044;-70
2022/07/10 03:24:43;;;;;;;4.18;1.77;;;;;;;;;;5049618;28;20033;-72
2022/07/10 03:27:08;;;;;;;2.88;1.30;;;;;;;;;;5049494;28;20020;-71
2022/07/10 03:29:33;;;;;;;3.05;1.27;;;;;;;;;;5048942;28;20078;-71
2022/07/10 03:31:59;;;;;;;4.60;1.52;;;;;;;;;;5049240;28;20021;-71
2022/07/10 03:34:24;;;;;;;4.40;1.40;;;;;;;;;;5049071;28;20486;-70
2022/07/10 03:36:49;;;;;;;3.08;1.40;;;;;;;;;;5049080;28;20436;-71
2022/07/10 03:39:15;;;;;;;2.55;1.50;;;;;;;;;;5030762;28;20570;-72
2022/07/10 03:41:40;;;;;;;7.00;1.77;;;;;;;;;;5049188;28;20041;-71
2022/07/10 03:44:05;;;;;;;4.90;1.40;;;;;;;;;;5049113;28;20501;-71
2022/07/10 03:46:31;;;;;;;2.17;1.20;;;;;;;;;;5030836;28;20048;-72
2022/07/10 03:48:56;;;;;;;3.47;1.55;;;;;;;;;;5048786;28;20032;-71
2022/07/10 03:51:21;;;;;;;3.90;1.40;;;;;;;;;;5048920;28;20028;-71
2022/07/10 03:53:46;;;;;;;4.07;1.40;;;;;;;;;;5048658;28;20020;-72
2022/07/10 03:57:53;;;;;;;4.55;1.40;;;;;;;;;;5048870;28;20056;-71
2022/07/10 03:58:57;;;;;;;7.80;1.55;;;;;;;;;;5048336;28;20150;-71
2022/07/10 04:01:22;;;;;;;4.78;1.50;;;;;;;;;;5030855;28;20673;-71
2022/07/10 04:03:48;;;;;;;4.63;1.42;;;;;;;;;;5048521;28;20028;-71
2022/07/10 04:06:13;;;;;;;3.60;1.38;;;;;;;;;;5048239;28;20061;-71
2022/07/10 04:08:39;;;;;;;2.22;1.30;;;;;;;;;;5048235;28;20390;-72
2022/07/10 04:11:05;;;;;;;2.10;1.20;;;;;;;;;;5048568;28;20053;-70
2022/07/10 04:13:31;;;;;;;2.90;1.27;;;;;;;;;;5048359;28;20557;-70
2022/07/10 04:15:56;;;;;;;3.83;1.40;;;;;;;;;;5048284;28;20029;-70
2022/07/10 04:18:21;;;;;;;2.65;1.45;;;;;;;;;;5048159;28;20029;-71
2022/07/10 04:20:47;;;;;;;2.47;1.20;;;;;;;;;;5048377;28;20110;-71
2022/07/10 04:23:12;;;;;;;4.70;1.17;;;;;;;;;;5048393;28;20029;-70
2022/07/10 04:25:37;;;;;;;5.47;1.63;;;;;;;;;;5048438;28;20331;-71
2022/07/10 04:28:03;;;;;;;4.22;1.45;;;;;;;;;;5048232;28;20041;-72
2022/07/10 04:30:28;;;;;;;4.22;1.40;;;;;;;;;;5048307;28;20158;-71
2022/07/10 04:32:53;;;;;;;4.75;1.60;;;;;;;;;;5048385;28;20082;-71
2022/07/10 04:35:18;;;;;;;3.90;1.70;;;;;;;;;;5048346;28;20036;-71
2022/07/10 04:37:44;;;;;;;5.20;1.30;;;;;;;;;;5048525;28;20029;-71
2022/07/10 04:40:10;;;;;;;4.53;1.33;;;;;;;;;;5048150;28;20029;-71
2022/07/10 04:42:35;;;;;;;4.65;1.45;;;;;;;;;;5048384;28;20151;-72
2022/07/10 04:45:02;;;;;;;2.28;1.15;;;;;;;;;;5048066;28;20474;-72
2022/07/10 04:47:27;;;;;;;1.80;1.20;;;;;;;;;;5048224;28;20037;-72
2022/07/10 04:49:52;;;;;;;3.83;1.40;;;;;;;;;;5047987;28;20032;-71
2022/07/10 04:52:18;;;;;;;4.93;1.35;;;;;;;;;;5048012;28;20028;-71
2022/07/10 04:54:43;;;;;;;3.80;1.40;;;;;;;;;;5047999;28;20021;-71
2022/07/10 04:57:08;;;;;;;1.55;1.20;;;;;;;;;;5048774;28;20032;-70
2022/07/10 04:59:33;;;;;;;4.10;1.25;;;;;;;;;;5051647;28;20025;-71
2022/07/10 05:01:59;;;;;;;3.03;1.10;;;;;;;;;;5052253;28;20024;-70
2022/07/10 05:04:24;;;;;;;2.28;1.15;;;;;;;;;;5051857;28;20036;-72
2022/07/10 05:06:49;;;;;;;3.13;1.38;;;;;;;;;;5052119;28;20386;-71
2022/07/10 05:09:15;;;;;;;2.60;1.27;;;;;;;;;;5051787;28;20327;-71
2022/07/10 05:11:40;;;;;;;3.90;1.30;;;;;;;;;;5051915;28;20078;-72
2022/07/10 05:14:06;;;;;;;2.30;1.02;;;;;;;;;;5051739;28;20033;-71
2022/07/10 05:16:31;;;;;;;2.53;1.10;;;;;;;;;;5052213;28;20025;-72
2022/07/10 05:18:56;;;;;;;3.08;1.20;;;;;;;;;;5051689;28;20032;-72
2022/07/10 05:21:22;;;;;;;5.35;1.33;;;;;;;;;;5051424;28;20693;-70
2022/07/10 05:23:47;;;;;;;3.20;1.63;;;;;;;;;;5051593;28;20395;-71
2022/07/10 05:26:12;;;;;;;2.92;1.10;;;;;;;;;;5051419;28;20035;-72
2022/07/10 05:28:38;;;;;;;5.50;1.10;;;;;;;;;;5051466;28;20162;-71
2022/07/10 05:31:03;;;;;;;4.70;1.05;;;;;;;;;;5051447;28;20025;-72
2022/07/10 05:33:29;;;;;;;2.92;0.93;;;;;;;;;;5033839;28;20029;-74
2022/07/10 05:35:55;;;;;;;4.15;1.17;;;;;;;;;;5051243;28;20147;-70
2022/07/10 05:38:20;;;;;;;4.63;1.45;;;;;;;;;;5051106;28;20024;-72
2022/07/10 05:40:46;;;;;;;3.88;1.40;;;;;;;;;;5051210;28;20040;-72
2022/07/10 05:43:11;;;;;;;2.35;1.10;;;;;;;;;;5051138;28;20025;-72
2022/07/10 05:45:37;;;;;;;3.33;1.13;;;;;;;;;;5051126;28;20075;-72
2022/07/10 05:48:03;;;;;;;2.33;0.90;;;;;;;;;;5050735;28;20502;-71
2022/07/10 05:50:28;;;;;;;2.83;1.20;;;;;;;;;;5050712;28;20554;-71
2022/07/10 05:52:53;;;;;;;3.00;1.10;;;;;;;;;;5051058;28;20033;-70
2022/07/10 05:55:19;;;;;;;3.10;1.10;;;;;;;;;;5050740;28;20080;-72
2022/07/10 05:57:44;;;;;;;4.88;1.00;;;;;;;;;;5050885;28;20070;-71
2022/07/10 06:00:10;;;;;;;2.80;1.00;;;;;;;;;;5050817;28;20060;-74
2022/07/10 06:02:35;;;;;;;3.63;1.33;;;;;;;;;;5050621;28;20100;-73
2022/07/10 06:05:00;;;;;;;3.13;0.90;;;;;;;;;;5050245;28;20367;-72
2022/07/10 06:07:26;;;;;;;2.47;0.90;;;;;;;;;;5050817;28;20032;-74
2022/07/10 06:09:52;;;;;;;3.30;1.10;;;;;;;;;;5048909;28;20390;-72
2022/07/10 06:12:17;;;;;;;2.80;0.98;;;;;;;;;;5050408;28;20033;-73
2022/07/10 06:14:43;;;;;;;2.63;0.95;;;;;;;;;;5050485;28;20021;-73
2022/07/10 06:17:08;;;;;;;3.17;1.05;;;;;;;;;;5050756;28;20147;-71
2022/07/10 06:19:33;;;;;;;2.10;0.77;;;;;;;;;;5050219;28;20020;-72
2022/07/10 06:24:43;;;;;;;3.53;1.10;;;;;;;;;;5050410;28;20031;-74
2022/07/10 06:27:08;;;;;;;5.97;0.98;;;;;;;;;;5055283;28;20029;-71
2022/07/10 06:29:33;;;;;;;2.45;0.90;;;;;;;;;;5060935;28;20031;-71
2022/07/10 06:31:58;;;;;;;3.13;0.95;;;;;;;;;;5060794;28;20409;-73
2022/07/10 06:34:24;;;;;;;3.95;0.90;;;;;;;;;;5070154;28;20131;-70
2022/07/10 06:36:49;;;;;;;2.22;0.88;;;;;;;;;;5069655;28;20024;-69
2022/07/10 06:39:14;;;;;;;4.93;1.10;;;;;;;;;;5069879;28;20270;-72
2022/07/10 06:41:40;;;;;;;2.53;1.35;;;;;;;;;;5069763;28;20495;-70
2022/07/10 06:44:05;;;;;;;2.30;1.00;;;;;;;;;;5069949;28;20585;-72
2022/07/10 06:46:31;;;;;;;3.20;1.05;;;;;;;;;;5069815;28;20100;-70
2022/07/10 06:48:57;;;;;;;3.63;1.00;;;;;;;;;;5069520;28;20394;-71
2022/07/10 06:51:22;;;;;;;2.00;0.90;;;;;;;;;;5045827;28;20305;-72
2022/07/10 06:53:48;;;;;;;3.65;1.20;;;;;;;;;;5027899;28;20032;-70
2022/07/10 06:56:15;;;;;;;2.40;1.05;;;;;;;;;;5048642;28;20104;-70
2022/07/10 06:58:41;;;;;;;2.78;0.88;;;;;;;;;;5046520;28;20037;-72
2022/07/10 07:01:06;;;;;;;4.95;1.10;;;;;;;;;;5046626;28;20036;-72
2022/07/10 07:03:31;;;;;;;3.15;0.90;;;;;;;;;;5048262;28;20017;-71
2022/07/10 07:05:57;;;;;;;2.28;0.85;;;;;;;;;;5076372;22;20131;-73
2022/07/10 07:08:22;;;;;;;2.85;1.00;;;;;;;;;;5068944;28;20030;-73
2022/07/10 07:10:47;;;;;;;3.58;1.02;;;;;;;;;;5069129;28;20500;-76
2022/07/10 07:13:12;;;;;;;5.00;0.95;;;;;;;;;;5069816;28;20248;-74
2022/07/10 07:15:41;;;;;;;3.45;0.90;;;;;;;;;;5069186;28;20031;-74
2022/07/10 07:18:07;;;;;;;4.70;1.10;;;;;;;;;;5067666;28;20032;-76
2022/07/10 07:23:19;;;;;;;3.60;0.75;;;;;;;;;;5069423;28;20043;-74
2022/07/10 07:25:46;;;;;;;2.58;0.90;;;;;;;;;;5069648;28;20428;-75
2022/07/10 07:28:15;;;;;;;2.72;1.00;;;;;;;;;;5068970;28;20032;-72
2022/07/10 07:30:40;;;;;;;2.75;0.88;;;;;;;;;;5069173;28;20378;-75
2022/07/10 07:33:06;;;;;;;4.90;2.42;;;;;;;;;;5068848;28;20036;-73
2022/07/10 07:35:31;;;;;;;1.95;0.93;;;;;;;;;;5067919;28;20101;-75
2022/07/10 07:37:56;;;;;;;3.08;0.95;;;;;;;;;;5068957;28;20493;-73
2022/07/10 07:40:23;;;;;;;1.13;0.70;;;;;;;;;;5069019;28;20056;-74
2022/07/10 07:42:54;;;;;;;6.00;1.20;;;;;;;;;;5068826;28;20028;-73
2022/07/10 07:45:20;;;;;;;;;;;;;;;;;;5069306;28;20032;-73
2022/07/10 07:47:50;;;;;;;2.08;0.98;;;;;;;;;;5068728;28;19915;-75
2022/07/10 07:50:23;;;;;;;3.15;1.08;;;;;;;;;;5068872;28;20025;-74
2022/07/10 07:52:49;;;;;;;2.05;0.90;;;;;;;;;;5068810;28;20020;-75
2022/07/10 07:55:16;;;;;;;2.05;1.10;;;;;;;;;;5068823;28;20028;-73
2022/07/10 07:57:43;;;;;;;1.83;0.95;;;;;;;;;;5068593;28;20020;-75
2022/07/10 08:00:09;;;;;;;2.33;0.90;;;;;;;;;;5068715;28;20032;-75
2022/07/10 08:02:35;;;;;;;2.33;0.90;;;;;;;;;;5068520;28;20024;-74
2022/07/10 08:05:01;;;;;;;3.00;1.00;;;;;;;;;;5068786;28;20386;-73
2022/07/10 08:07:34;;;;;;;3.20;1.10;;;;;;;;;;5068329;28;20125;-75
2022/07/10 08:09:59;;;;;;;2.25;1.00;;;;;;;;;;5068657;28;20024;-75
2022/07/10 08:12:24;;;;;;;3.50;1.10;;;;;;;;;;5068502;28;20027;-75
2022/07/10 08:14:50;;;;;;;3.00;1.60;;;;;;;;;;5068644;28;20311;-74
2022/07/10 08:17:15;;;;;;;2.03;1.20;;;;;;;;;;5068442;28;20264;-75
2022/07/10 08:19:40;;;;;;;2.20;1.00;;;;;;;;;;5068370;28;20462;-72
2022/07/10 08:22:05;;;;;;;3.10;1.30;;;;;;;;;;5068392;28;20280;-75
2022/07/10 08:24:34;;;;;;;2.17;1.17;;;;;;;;;;5068720;28;20674;-78
2022/07/10 08:26:59;;;;;;;2.30;1.40;;;;;;;;;;5068948;28;20378;-77
2022/07/10 08:29:25;;;;;;;3.60;1.20;;;;;;;;;;5068543;28;20027;-75
2022/07/10 08:31:50;;;;;;;3.45;1.60;;;;;;;;;;5068051;28;20341;-75
2022/07/10 08:34:15;;;;;;;3.63;1.40;;;;;;;;;;5068512;28;20448;-76
2022/07/10 08:36:41;;;;;;;3.37;1.30;;;;;;;;;;5068660;28;20116;-76
2022/07/10 08:39:06;;;;;;;4.03;1.48;;;;;;;;;;5068756;28;20658;-75
2022/07/10 08:41:34;;;;;;;3.15;1.13;;;;;;;;;;5068986;28;20055;-78
2022/07/10 08:44:00;;;;;;;4.75;1.52;;;;;;;;;;5069085;28;20063;-76
2022/07/10 08:46:26;;;;;;;3.22;1.20;;;;;;;;;;5069497;28;20056;-75
2022/07/10 08:48:53;;;;;;;3.67;1.50;;;;;;;;;;5068986;28;20063;-76
2022/07/10 08:52:00;;;;;;;3.65;1.35;;;;;;;;;;5069717;28;20493;-77
2022/07/10 08:54:29;;;;;;;2.35;1.00;;;;;;;;;;5069756;28;20520;-74
2022/07/10 08:56:56;;;;;;;2.70;1.05;;;;;;;;;;5088097;28;20034;-75
2022/07/10 08:59:22;;;;;;;2.83;1.00;;;;;;;;;;5089803;28;20036;-79
2022/07/10 09:01:49;;;;;;;3.55;1.10;;;;;;;;;;5088996;28;20480;-75
2022/07/10 09:04:19;;;;;;;4.47;1.20;;;;;;;;;;5087907;28;20027;-75
2022/07/10 09:06:44;;;;;;;3.03;1.13;;;;;;;;;;5087428;28;20382;-76
2022/07/10 09:09:11;;;;;;;4.53;2.38;;;;;;;;;;5088524;28;20035;-77
2022/07/10 09:11:40;;;;;;;2.55;1.27;;;;;;;;;;5089064;28;20082;-74
2022/07/10 09:14:11;;;;;;;1.80;1.13;;;;;;;;;;5088460;28;20541;-74
2022/07/10 09:16:39;;;;;;;2.20;1.08;;;;;;;;;;5088732;28;20030;-75
2022/07/10 09:19:19;;;;;;;2.83;1.25;;;;;;;;;;5088080;28;20442;-74
2022/07/10 09:21:47;;;;;;;5.85;1.30;;;;;;;;;;5088134;28;20035;-74
2022/07/10 09:24:12;;;;;;;2.20;1.17;;;;;;;;;;5088211;28;20028;-73
2022/07/10 09:26:39;;;;;;;2.97;1.00;;;;;;;;;;5087567;28;20035;-75
2022/07/10 09:29:07;;;;;;;2.65;1.10;;;;;;;;;;5087442;28;20110;-74
2022/07/10 09:31:51;;;;;;;3.20;1.05;;;;;;;;;;5088102;28;20073;-72
2022/07/10 09:34:17;;;;;;;2.30;1.17;;;;;;;;;;5087695;28;20024;-73
2022/07/10 09:36:43;;;;;;;3.45;1.20;;;;;;;;;;5087560;28;20598;-73
2022/07/10 09:39:08;;;;;;;4.60;0.95;;;;;;;;;;5087378;28;20036;-75
2022/07/10 09:41:34;;;;;;;2.67;1.10;;;;;;;;;;5087414;28;20454;-71
2022/07/10 09:44:02;;;;;;;2.30;1.30;;;;;;;;;;5089314;28;20485;-72
2022/07/10 09:46:35;;;;;;;3.03;1.23;;;;;;;;;;5091404;28;20034;-72
2022/07/10 09:49:02;;;;;;;3.17;1.13;;;;;;;;;;5091117;28;20032;-72
2022/07/10 09:51:33;;;;;;;2.33;1.20;;;;;;;;;;5091258;28;20490;-73
2022/07/10 09:54:04;;;;;;;1.95;1.13;;;;;;;;;;5091246;28;20431;-72
2022/07/10 09:56:40;;;;;;;2.28;1.15;;;;;;;;;;5076025;28;20035;-74
2022/07/10 09:59:09;;;;;;;2.85;1.42;;;;;;;;;;5070801;28;20156;-73
2022/07/10 10:01:35;;;;;;;2.42;1.30;;;;;;;;;;5070752;28;20393;-73
2022/07/10 10:04:03;;;;;;;4.25;1.10;;;;;;;;;;5070997;28;20066;-73
2022/07/10 10:06:30;;;;;;;2.28;1.00;;;;;;;;;;5070460;28;20020;-74
2022/07/10 10:09:05;;;;;;;2.45;1.00;;;;;;;;;;5070225;28;20059;-70
2022/07/10 10:11:32;;;;;;;2.83;1.15;;;;;;;;;;5071036;28;20512;-70
2022/07/10 10:13:58;;;;;;;2.15;1.20;;;;;;;;;;5070905;28;20111;-71
2022/07/10 10:16:27;;;;;;;2.05;1.25;;;;;;;;;;5070662;28;20033;-75
2022/07/10 10:21:38;;;;;;;3.53;1.55;;;;;;;;;;5069360;28;20067;-72
2022/07/10 10:24:04;;;;;;;2.55;1.50;;;;;;;;;;5070520;28;20060;-73
2022/07/10 10:26:29;;;;;;;2.95;1.20;;;;;;;;;;5070211;28;20448;-77
2022/07/10 10:28:58;;;;;;;2.42;1.17;;;;;;;;;;5070522;28;20021;-76
2022/07/10 10:31:24;;;;;;;3.28;1.40;;;;;;;;;;5070883;28;20096;-78
2022/07/10 10:33:55;;;;;;;2.17;1.50;;;;;;;;;;5070246;28;20028;-74
2022/07/10 10:36:45;;;;;;;2.55;1.60;;;;;;;;;;5070541;28;20021;-74
2022/07/10 10:39:16;;;;;;;1.67;1.42;;;;;;;;;;5070000;28;20021;-75
2022/07/10 10:41:52;;;;;;;3.25;1.50;;;;;;;;;;5070217;28;20028;-74
2022/07/10 10:44:17;;;;;;;2.20;1.23;;;;;;;;;;5070204;28;20528;-76
2022/07/10 10:46:56;;;;;;;1.93;1.20;;;;;;;;;;5070161;28;20032;-73
2022/07/10 10:49:25;;;;;;;2.83;1.48;;;;;;;;;;5069786;28;20269;-74
2022/07/10 10:51:57;;;;;;;2.75;1.40;;;;;;;;;;5070026;28;20028;-75
2022/07/10 10:54:23;;;;;;;;;;;;;;;;;;5070191;28;20028;-75
2022/07/10 10:57:13;;;;;;;2.45;1.17;;;;;;;;;;5069866;28;19926;-72
2022/07/10 10:59:52;;;;;;;2.17;1.23;;;;;;;;;;5069699;28;20054;-73
2022/07/10 11:02:36;;;;;;;3.67;1.20;;;;;;;;;;5069874;28;20032;-75
2022/07/10 11:05:23;;;;;;;1.70;1.10;;;;;;;;;;5069652;28;20021;-75
2022/07/10 11:07:56;;;;;;;2.55;1.23;;;;;;;;;;5070029;28;20125;-75
2022/07/10 11:10:35;;;;;;;3.05;1.38;;;;;;;;;;5069862;28;20103;-76
2022/07/10 11:13:07;;;;;;;2.60;1.10;;;;;;;;;;5069749;28;20115;-74
2022/07/10 11:15:37;;;;;;;2.50;1.15;;;;;;;;;;5069429;28;20032;-74
2022/07/10 11:18:06;;;;;;;1.98;1.20;;;;;;;;;;5069387;28;20024;-75
2022/07/10 11:20:35;;;;;;;2.25;1.20;;;;;;;;;;5069568;28;20456;-76
2022/07/10 11:23:27;;;;;;;1.73;1.10;;;;;;;;;;5069661;28;20516;-74
2022/07/10 11:26:10;;;;;;;;;;;;;;;;;;5069730;28;20032;-75
2022/07/10 11:28:49;;;;;;;3.10;1.30;;;;;;;;;;5069543;28;19916;-76
2022/07/10 11:31:14;;;;;;;2.47;1.00;;;;;;;;;;5069904;28;20445;-76
2022/07/10 11:33:44;;;;;;;1.33;0.95;;;;;;;;;;5069259;28;20119;-75
2022/07/10 11:36:15;;;;;;;3.17;1.17;;;;;;;;;;5069125;28;20025;-74
2022/07/10 11:38:42;;;;;;;2.13;1.20;;;;;;;;;;5069221;28;20059;-73
2022/07/10 11:41:23;;;;;;;3.78;1.10;;;;;;;;;;5069090;28;20098;-73
2022/07/10 11:43:59;;;;;;;1.20;1.10;;;;;;;;;;5069752;28;20044;-75
2022/07/10 11:46:29;;;;;;;1.00;0.90;;;;;;;;;;5068991;28;20107;-73
2022/07/10 11:48:58;;;;;;;1.92;1.20;;;;;;;;;;5068560;28;20024;-73
2022/07/10 11:51:28;;;;;;;1.70;1.17;;;;;;;;;;5069019;28;20016;-74
2022/07/10 11:53:58;;;;;;;2.00;1.10;;;;;;;;;;5068925;28;20039;-74
2022/07/10 11:56:24;;;;;;;2.25;1.27;;;;;;;;;;5069032;28;20433;-75
2022/07/10 11:58:54;;;;;;;1.85;1.00;;;;;;;;;;5068698;28;20374;-72
2022/07/10 12:01:19;;;;;;;1.70;1.20;;;;;;;;;;5067305;28;20032;-75
2022/07/10 12:03:44;;;;;;;1.38;1.08;;;;;;;;;;5068894;28;20223;-73
2022/07/10 12:06:10;;;;;;;3.10;1.45;;;;;;;;;;5067935;28;20040;-75
2022/07/10 12:08:48;;;;;;;2.45;1.20;;;;;;;;;;5066507;28;20024;-71
2022/07/10 12:11:15;;;;;;;1.10;1.00;;;;;;;;;;5068762;28;20390;-75
2022/07/10 12:13:40;;;;;;;2.03;1.20;;;;;;;;;;5068683;28;20024;-74
2022/07/10 12:16:05;;;;;;;2.40;1.10;;;;;;;;;;5068347;28;20390;-72
2022/07/10 12:18:33;;;;;;;1.52;1.13;;;;;;;;;;5068292;28;20500;-72
2022/07/10 12:20:59;;;;;;;2.47;1.13;;;;;;;;;;5068407;28;20036;-75
2022/07/10 12:23:25;;;;;;;1.38;1.10;;;;;;;;;;5068430;28;20043;-73
2022/07/10 12:25:50;;;;;;;2.15;1.10;;;;;;;;;;5068308;28;20031;-72
2022/07/10 12:28:16;;;;;;;1.30;1.10;;;;;;;;;;5068805;28;20113;-73
2022/07/10 12:30:46;;;;;;;2.58;1.20;;;;;;;;;;5068258;28;20093;-73
2022/07/10 12:33:17;;;;;;;1.95;1.13;;;;;;;;;;5068802;28;20044;-72
2022/07/10 12:35:51;;;;;;;2.70;1.20;;;;;;;;;;5068539;28;20378;-72
2022/07/10 12:38:21;;;;;;;1.95;1.10;;;;;;;;;;5068075;28;20029;-73
2022/07/10 12:40:47;;;;;;;1.20;1.10;;;;;;;;;;5068129;28;20024;-73
2022/07/10 12:43:24;;;;;;;1.35;0.98;;;;;;;;;;5068395;28;20029;-73
2022/07/10 12:46:15;;;;;;;2.28;1.23;;;;;;;;;;5068322;28;20077;-71
2022/07/10 12:49:09;;;;;;;1.17;0.90;;;;;;;;;;5068108;28;20081;-72
2022/07/10 12:51:44;;;;;;;1.33;1.00;;;;;;;;;;5068179;28;20020;-74
2022/07/10 12:54:32;;;;;;;2.95;1.00;;;;;;;;;;5068249;28;20520;-75
2022/07/10 12:56:58;;;;;;;1.20;1.10;;;;;;;;;;5068212;28;20032;-72
2022/07/10 12:59:24;;;;;;;3.47;1.33;;;;;;;;;;5068076;28;20481;-73
2022/07/10 13:01:49;;;;;;;2.05;1.30;;;;;;;;;;5068385;28;20119;-75
2022/07/10 13:04:22;;;;;;;1.20;1.10;;;;;;;;;;5068228;28;20505;-70
2022/07/10 13:06:47;;;;;;;1.25;1.15;;;;;;;;;;5071004;28;20460;-72
2022/07/10 13:09:23;;;;;;;1.38;1.20;;;;;;;;;;5067678;28;20056;-73
2022/07/10 13:11:50;;;;;;;1.20;1.10;;;;;;;;;;5068427;28;20031;-74
2022/07/10 13:14:15;;;;;;;2.30;1.40;;;;;;;;;;5067893;28;20021;-73
2022/07/10 13:16:41;;;;;;;2.60;1.42;;;;;;;;;;5067794;28;20379;-73
2022/07/10 13:19:07;;;;;;;2.50;1.42;;;;;;;;;;5069919;28;20047;-71
2022/07/10 13:21:32;;;;;;;1.75;1.20;;;;;;;;;;5071534;28;20501;-72
2022/07/10 13:23:58;;;;;;;2.28;1.35;;;;;;;;;;5071765;28;20425;-71
2022/07/10 13:26:23;;;;;;;3.58;1.40;;;;;;;;;;5071944;28;20107;-70
2022/07/10 13:28:48;;;;;;;1.10;1.00;;;;;;;;;;5071242;28;20303;-72
2022/07/10 13:31:14;;;;;;;1.50;1.20;;;;;;;;;;5071405;28;20037;-72
2022/07/10 13:33:39;;;;;;;3.75;1.20;;;;;;;;;;5072060;28;20032;-72
2022/07/10 13:36:05;;;;;;;3.03;1.20;;;;;;;;;;5069883;28;20505;-72
2022/07/10 13:38:31;;;;;;;1.98;1.38;;;;;;;;;;5071184;28;20070;-73
2022/07/10 13:40:57;;;;;;;1.83;1.25;;;;;;;;;;5071222;28;20097;-73
2022/07/10 13:43:28;;;;;;;3.92;1.50;;;;;;;;;;5071434;28;20090;-76
2022/07/10 13:45:55;;;;;;;1.40;1.30;;;;;;;;;;5071255;28;20394;-73
2022/07/10 13:48:21;;;;;;;1.70;1.17;;;;;;;;;;5070816;28;20028;-72
2022/07/10 13:50:47;;;;;;;2.35;1.33;;;;;;;;;;5071066;28;20031;-73
2022/07/10 13:53:12;;;;;;;2.25;1.23;;;;;;;;;;5071221;28;20024;-73
2022/07/10 13:55:38;;;;;;;1.48;1.30;;;;;;;;;;5071167;28;20034;-74
2022/07/10 13:58:03;;;;;;;1.48;1.25;;;;;;;;;;5070810;28;20029;-73
2022/07/10 14:00:29;;;;;;;2.20;1.10;;;;;;;;;;5070955;28;20382;-74
2022/07/10 14:02:57;;;;;;;1.55;1.27;;;;;;;;;;5070752;28;20047;-72
2022/07/10 14:05:24;;;;;;;1.08;1.02;;;;;;;;;;5070655;28;20016;-75
2022/07/10 14:07:49;;;;;;;1.92;1.02;;;;;;;;;;5071255;28;20031;-75
2022/07/10 14:10:15;;;;;;;1.73;1.23;;;;;;;;;;5070627;28;20028;-74
2022/07/10 14:12:40;;;;;;;1.20;1.10;;;;;;;;;;5070572;28;20498;-73
2022/07/10 14:15:07;;;;;;;1.30;1.20;;;;;;;;;;5070667;28;20026;-73
2022/07/10 14:17:32;;;;;;;1.85;1.30;;;;;;;;;;5070664;28;20054;-74
2022/07/10 14:19:57;;;;;;;1.30;1.20;;;;;;;;;;5070553;28;20013;-75
2022/07/10 14:22:24;;;;;;;3.10;1.60;;;;;;;;;;5070508;28;20488;-72
2022/07/10 14:24:49;;;;;;;1.35;1.10;;;;;;;;;;5071068;28;20063;-74
2022/07/10 14:27:14;;;;;;;2.67;1.35;;;;;;;;;;5070283;28;20060;-72
2022/07/10 14:29:40;;;;;;;2.58;1.60;;;;;;;;;;5069435;28;20035;-73
2022/07/10 14:32:05;;;;;;;1.10;1.00;;;;;;;;;;5068890;28;20060;-73
2022/07/10 14:34:31;;;;;;;1.60;1.20;;;;;;;;;;5070414;28;20058;-73
2022/07/10 14:36:56;;;;;;;1.23;1.13;;;;;;;;;;5070825;28;20044;-72
2022/07/10 14:39:21;;;;;;;2.08;1.10;;;;;;;;;;5070069;28;20492;-73
2022/07/10 14:41:47;;;;;;;2.55;1.15;;;;;;;;;;5070044;28;20025;-74
2022/07/10 14:44:12;;;;;;;1.38;1.27;;;;;;;;;;5070217;28;20029;-74
2022/07/10 14:46:38;;;;;;;2.30;1.30;;;;;;;;;;5068786;28;20542;-73
2022/07/10 14:49:03;;;;;;;1.40;1.30;;;;;;;;;;5070038;28;20374;-74
2022/07/10 14:51:29;;;;;;;1.17;1.00;;;;;;;;;;5070035;28;20043;-74